Home   Weather   India   Pudukkottai   Past weeks
Flag for India

Past Weather in Pudukkottai, Tamil Nadu, India — Yesterday and Last 2 Weeks

Currently: 81 °F. Scattered clouds. (Weather station: Tiruchchirapalli, India). See more current weather

Past Weather in Pudukkottai — Graph

°F

Pudukkottai Temperature Yesterday

Maximum temperature yesterday: 95 °F (at 3:00 pm)
Minimum temperature yesterday: 72 °F (at 4:30 am)
Average temperature yesterday: 82 °F

High & Low Weather Summary for the Past Weeks

 TemperatureHumidityPressure
High97 °F (Feb 26, 3:30 pm)94% (Feb 17, 6:30 am)30.01 "Hg (Feb 17, 6:30 am)
Low70 °F (Feb 27, 6:00 am)25% (Feb 27, 3:30 pm)29.71 "Hg (Feb 26, 4:30 pm)
Average81 °F69%29.88 "Hg
* Reported Feb 15 9:30 am — Mar 2 9:30 am, Pudukkottai. Weather by CustomWeather, © 2021

Note: Actual official high and low records may vary slightly from our data, if they occured in-between our weather recording intervals... More about our weather records

Pudukkottai Weather History for the Previous 24 Hours

Scroll right to see more
 ConditionsComfort  
Time TempWeatherWind HumidityBarometerVisibility
9:30 am
Tue, Mar 2
81 °FScattered clouds.3 mph70%29.98 "Hg1 mi
9:00 am77 °FFog.3 mph83%29.98 "Hg1 mi
8:30 am75 °FFog.3 mph89%29.98 "Hg1 mi
8:00 am75 °FFog.5 mph78%29.98 "Hg1 mi
7:30 am73 °FFog.3 mph83%29.95 "Hg1 mi
7:00 am72 °FFog.3 mph88%29.95 "Hg1 mi
6:00 am70 °FFog.2 mph94%29.92 "Hg2 mi
5:30 am72 °FFog.3 mph88%29.92 "Hg2 mi
5:00 am72 °FFog.No wind88%29.89 "Hg2 mi
4:30 am72 °FFog.No wind88%29.89 "Hg2 mi
3:30 am73 °FFog.2 mph89%29.92 "Hg2 mi
2:30 am73 °FFog.2 mph89%29.92 "Hg2 mi
1:30 am75 °FFog.3 mph89%29.95 "Hg2 mi
12:30 am77 °FFog.5 mph79%29.95 "Hg2 mi
11:30 pm
Mon, Mar 1
77 °FFog.5 mph79%29.98 "Hg2 mi
10:30 pm79 °FHaze.3 mph70%29.95 "Hg2 mi
10:00 pm81 °FHaze.3 mph66%29.95 "Hg3 mi
9:30 pm81 °FHaze.5 mph66%29.95 "Hg3 mi
9:00 pm82 °FHaze.5 mph58%29.95 "Hg3 mi
8:30 pm84 °FHaze.7 mph55%29.92 "Hg3 mi
8:00 pm86 °FHaze.6 mph49%29.92 "Hg3 mi
7:30 pm88 °FHaze.9 mph46%29.89 "Hg3 mi
7:00 pm88 °FPassing clouds.7 mph46%29.89 "Hg4 mi
6:30 pm90 °FPassing clouds.6 mph41%29.89 "Hg4 mi
6:00 pm91 °FClear.5 mph38%29.86 "Hg4 mi
5:30 pm93 °FClear.7 mph36%29.86 "Hg4 mi
5:00 pm93 °FClear.6 mph36%29.86 "Hg4 mi
4:30 pm93 °FClear.7 mph36%29.86 "Hg5 mi
4:00 pm93 °FClear.6 mph36%29.86 "Hg5 mi
3:30 pm95 °FClear.6 mph34%29.86 "Hg5 mi
3:00 pm95 °FClear.9 mph34%29.86 "Hg5 mi
2:30 pm93 °FClear.9 mph36%29.86 "Hg4 mi
1:30 pm91 °FClear.6 mph49%29.92 "Hg4 mi
12:30 pm90 °FHaze.5 mph52%29.95 "Hg3 mi
11:30 am86 °FHaze.2 mph59%29.98 "Hg3 mi
10:00 am82 °FScattered clouds.5 mph70%30.01 "Hg2 mi
Weather by CustomWeather, © 2021

See weather overview